createdAt,value
2023-06-30T05:00:50.594Z,88.27
2023-06-30T05:01:50.596Z,88.07
2023-06-30T05:02:50.546Z,87.93
2023-06-30T05:03:50.593Z,87.82
2023-06-30T05:04:50.493Z,87.57
2023-06-30T05:05:50.474Z,88.12
2023-06-30T05:06:50.483Z,88.12
2023-06-30T05:07:50.462Z,88.12
2023-06-30T05:08:50.449Z,87.62
2023-06-30T05:09:50.456Z,87.52
2023-06-30T05:10:50.459Z,87.93
2023-06-30T05:11:55.442Z,88.12
2023-06-30T05:12:50.399Z,88.23
2023-06-30T05:13:50.389Z,88.23
2023-06-30T05:14:50.382Z,88.23
2023-06-30T05:15:50.740Z,87.73
2023-06-30T05:16:50.505Z,87.73
2023-06-30T05:17:50.391Z,88.12
2023-06-30T05:18:50.331Z,87.73
2023-06-30T05:19:50.319Z,87.73
2023-06-30T05:20:50.345Z,87.48
2023-06-30T05:21:50.315Z,87.22
2023-06-30T05:22:55.319Z,87.88
2023-06-30T05:23:50.275Z,87.68
2023-06-30T05:24:50.289Z,87.98
2023-06-30T05:25:50.263Z,87.68
2023-06-30T05:26:50.273Z,87.38
2023-06-30T05:27:50.282Z,86.78
2023-06-30T05:29:03.475Z,86.48
2023-06-30T05:29:51.218Z,86.18
2023-06-30T05:30:50.212Z,86.78
2023-06-30T05:31:50.229Z,85.83
2023-06-30T05:32:50.252Z,85.88
2023-06-30T05:33:55.260Z,85.38
2023-06-30T05:34:50.161Z,85.03
2023-06-30T05:35:50.144Z,85.03
2023-06-30T05:36:50.130Z,85.24
2023-06-30T05:37:50.121Z,85.03
2023-06-30T05:38:50.105Z,85.03
2023-06-30T05:39:50.128Z,85.03
2023-06-30T05:40:50.080Z,84.63
2023-06-30T05:41:50.076Z,84.39
2023-06-30T05:42:50.080Z,84.19
2023-06-30T05:43:50.058Z,83.69
2023-06-30T05:44:55.076Z,84.39
2023-06-30T05:45:50.035Z,84.05
2023-06-30T05:46:50.077Z,84.25
2023-06-30T05:47:50.034Z,83.75
2023-06-30T05:48:50.032Z,84.05
2023-06-30T05:49:49.996Z,83.39
2023-06-30T05:50:49.974Z,83.89
2023-06-30T05:51:49.974Z,84.25
2023-06-30T05:52:49.998Z,84.15
2023-06-30T05:53:49.985Z,83.75
2023-06-30T05:54:49.931Z,83.95
2023-06-30T05:55:54.940Z,83.85
2023-06-30T05:56:49.915Z,83.35
2023-06-30T05:57:49.904Z,83.65
2023-06-30T05:58:49.896Z,83.85
2023-06-30T05:59:49.894Z,82.95
2023-06-30T06:00:49.866Z,83.35
2023-06-30T06:01:51.059Z,83.45
2023-06-30T06:02:49.939Z,83.55
2023-06-30T06:03:50.014Z,83.65
2023-06-30T06:04:49.987Z,82.75
2023-06-30T06:05:50.302Z,82.55
2023-06-30T06:06:54.865Z,82.95
2023-06-30T06:07:49.782Z,82.45
2023-06-30T06:08:49.796Z,82.95
2023-06-30T06:09:49.772Z,82.35
2023-06-30T06:10:49.761Z,82.15
2023-06-30T06:11:49.753Z,82.35
2023-06-30T06:12:49.774Z,82.24
2023-06-30T06:13:49.728Z,81.71
2023-06-30T06:14:49.709Z,82.01
2023-06-30T06:15:49.712Z,82.31
2023-06-30T06:16:49.753Z,82.85
2023-06-30T06:17:54.765Z,82.41
2023-06-30T06:18:49.664Z,82.91
2023-06-30T06:19:49.650Z,83.21
2023-06-30T06:20:49.660Z,83.61
2023-06-30T06:21:49.635Z,82.91
2023-06-30T06:22:49.629Z,81.67
2023-06-30T06:23:49.622Z,81.71
2023-06-30T06:24:49.608Z,81.21
2023-06-30T06:25:49.926Z,81.21
2023-06-30T06:26:49.581Z,80.91
2023-06-30T06:27:49.573Z,80.80
2023-06-30T06:28:54.571Z,81.11
2023-06-30T06:29:49.540Z,80.91
2023-06-30T06:30:49.586Z,81.01
2023-06-30T06:31:49.531Z,81.21
2023-06-30T06:32:49.555Z,82.01
2023-06-30T06:33:49.511Z,81.41
2023-06-30T06:34:49.497Z,82.21
2023-06-30T06:35:49.476Z,81.71
2023-06-30T06:36:49.498Z,81.81
2023-06-30T06:37:49.455Z,82.81
2023-06-30T06:38:49.454Z,82.31
2023-06-30T06:39:54.457Z,82.91
2023-06-30T06:40:49.420Z,82.01
2023-06-30T06:41:49.424Z,82.15
2023-06-30T06:42:49.410Z,82.41
2023-06-30T06:43:49.387Z,82.75
2023-06-30T06:44:49.372Z,82.24
2023-06-30T06:45:49.362Z,82.05
2023-06-30T06:46:49.391Z,82.55
2023-06-30T06:47:49.351Z,82.65
2023-06-30T06:48:49.364Z,82.65
2023-06-30T06:49:49.318Z,82.61
2023-06-30T06:50:54.361Z,82.55
2023-06-30T06:51:49.310Z,82.45
2023-06-30T06:52:49.318Z,81.91
2023-06-30T06:53:49.282Z,81.91
2023-06-30T06:54:49.279Z,82.21
2023-06-30T06:55:49.263Z,82.11
2023-06-30T06:56:49.252Z,81.51
2023-06-30T06:57:49.232Z,82.11
2023-06-30T06:58:49.216Z,81.97
2023-06-30T06:59:49.206Z,81.17
2023-06-30T07:00:49.276Z,80.97
2023-06-30T07:01:54.262Z,80.77
2023-06-30T07:02:49.209Z,81.67
2023-06-30T07:03:49.256Z,81.17
2023-06-30T07:04:49.159Z,81.67
2023-06-30T07:05:49.285Z,81.17
2023-06-30T07:06:49.139Z,80.93
2023-06-30T07:07:49.383Z,80.93
2023-06-30T07:08:49.129Z,80.53
2023-06-30T07:09:49.111Z,81.37
2023-06-30T07:10:49.168Z,81.33
2023-06-30T07:11:49.108Z,80.73
2023-06-30T07:12:54.097Z,80.63
2023-06-30T07:13:49.076Z,80.47
2023-06-30T07:14:50.230Z,80.57
2023-06-30T07:15:49.099Z,80.97
2023-06-30T07:16:49.165Z,81.23
2023-06-30T07:17:49.221Z,80.53
2023-06-30T07:18:49.047Z,80.73
2023-06-30T07:19:49.002Z,80.93
2023-06-30T07:20:49.070Z,80.73
2023-06-30T07:21:48.965Z,81.03
2023-06-30T07:22:48.995Z,80.87
2023-06-30T07:23:53.980Z,81.37
2023-06-30T07:24:48.958Z,81.37
2023-06-30T07:25:49.185Z,80.97
2023-06-30T07:26:48.922Z,80.53
2023-06-30T07:27:48.907Z,79.93
2023-06-30T07:28:48.897Z,80.33
2023-06-30T07:29:48.903Z,79.93
2023-06-30T07:30:49.025Z,79.67
2023-06-30T07:31:48.885Z,80.03
2023-06-30T07:32:48.936Z,80.13
2023-06-30T07:33:48.839Z,80.03
2023-06-30T07:34:53.836Z,79.73
2023-06-30T07:35:49.298Z,79.73
2023-06-30T07:36:48.802Z,80.03
2023-06-30T07:37:48.784Z,79.93
2023-06-30T07:38:48.793Z,79.83
2023-06-30T07:39:48.889Z,79.63
2023-06-30T07:41:48.775Z,79.73
2023-06-30T07:42:48.767Z,79.73
2023-06-30T07:43:48.736Z,79.63
2023-06-30T07:44:48.710Z,79.53
2023-06-30T07:45:53.759Z,79.29
2023-06-30T07:46:48.680Z,79.59
2023-06-30T07:47:49.019Z,78.69
2023-06-30T07:48:48.759Z,79.09
2023-06-30T07:49:48.651Z,78.79
2023-06-30T07:51:03.414Z,78.49
2023-06-30T07:51:48.628Z,77.56
2023-06-30T07:52:48.626Z,78.19
2023-06-30T07:53:48.605Z,77.09
2023-06-30T07:54:48.602Z,77.56
2023-06-30T07:55:48.650Z,78.05
2023-06-30T07:56:53.627Z,77.86
2023-06-30T07:57:48.624Z,77.45
2023-06-30T07:58:48.551Z,77.89
2023-06-30T07:59:48.543Z,77.45
2023-06-30T08:00:48.525Z,77.99
2023-06-30T08:01:48.540Z,78.36
2023-06-30T08:02:48.803Z,78.36
2023-06-30T08:03:48.576Z,78.66
2023-06-30T08:04:48.647Z,78.45
2023-06-30T08:05:49.081Z,78.85
2023-06-30T08:06:48.460Z,77.49
2023-06-30T08:07:53.571Z,78.39
2023-06-30T08:08:48.441Z,78.89
2023-06-30T08:09:48.437Z,78.99
2023-06-30T08:10:48.443Z,79.19
2023-06-30T08:11:48.439Z,79.13
2023-06-30T08:12:48.406Z,78.89
2023-06-30T08:13:48.408Z,79.53
2023-06-30T08:14:48.372Z,79.63
2023-06-30T08:15:49.515Z,79.53
2023-06-30T08:16:48.469Z,79.73
2023-06-30T08:17:55.024Z,79.93
2023-06-30T08:18:54.418Z,79.73
2023-06-30T08:19:49.869Z,79.43
2023-06-30T08:20:48.305Z,78.73
2023-06-30T08:21:48.312Z,78.53
2023-06-30T08:22:48.288Z,78.93
2023-06-30T08:23:48.272Z,79.13
2023-06-30T08:24:48.262Z,79.03
2023-06-30T08:25:48.278Z,78.83
2023-06-30T08:26:48.250Z,79.03
2023-06-30T08:27:48.269Z,79.03
2023-06-30T08:28:48.214Z,79.13
2023-06-30T08:29:53.244Z,78.83
2023-06-30T08:30:48.254Z,78.63
2023-06-30T08:31:48.220Z,79.13
2023-06-30T08:32:48.216Z,79.13
2023-06-30T08:33:48.166Z,78.86
2023-06-30T08:34:48.151Z,78.47
2023-06-30T08:35:48.177Z,79.06
2023-06-30T08:36:48.128Z,79.06
2023-06-30T08:37:50.917Z,79.17
2023-06-30T08:38:48.127Z,78.77
2023-06-30T08:39:48.100Z,77.93
2023-06-30T08:40:53.116Z,76.93
2023-06-30T08:41:48.075Z,77.33
2023-06-30T08:42:48.059Z,76.29
2023-06-30T08:43:48.073Z,76.13
2023-06-30T08:44:48.067Z,76.43
2023-06-30T08:45:48.280Z,76.13
2023-06-30T08:46:48.080Z,76.03
2023-06-30T08:47:48.068Z,76.17
2023-06-30T08:48:48.044Z,76.17
2023-06-30T08:49:48.005Z,76.26
2023-06-30T08:50:48.036Z,76.17
2023-06-30T08:51:52.990Z,76.06
2023-06-30T08:52:47.992Z,76.20
2023-06-30T08:53:47.956Z,76.40
2023-06-30T08:54:47.944Z,76.50
2023-06-30T08:55:48.281Z,75.87
2023-06-30T08:56:47.920Z,76.06
2023-06-30T08:57:47.908Z,76.10
2023-06-30T08:58:47.900Z,75.90
2023-06-30T08:59:47.988Z,75.30
2023-06-30T09:00:47.890Z,75.40
2023-06-30T09:01:47.882Z,75.80
2023-06-30T09:02:52.965Z,75.50
2023-06-30T09:03:47.910Z,76.00
2023-06-30T09:04:47.859Z,75.50
2023-06-30T09:05:47.998Z,75.90
2023-06-30T09:06:47.801Z,75.90
2023-06-30T09:07:47.918Z,75.40
2023-06-30T09:08:47.810Z,74.50
2023-06-30T09:09:47.810Z,74.70
2023-06-30T09:10:47.756Z,75.00
2023-06-30T09:11:47.757Z,74.40
2023-06-30T09:12:47.758Z,74.30
2023-06-30T09:13:52.757Z,74.50
2023-06-30T09:14:49.498Z,74.90
2023-06-30T09:15:48.109Z,74.80
2023-06-30T09:16:47.726Z,74.50
2023-06-30T09:17:47.800Z,74.43
2023-06-30T09:18:47.681Z,74.73
2023-06-30T09:19:47.668Z,74.84
2023-06-30T09:20:47.645Z,75.43
2023-06-30T09:21:47.660Z,74.73
2023-06-30T09:22:53.032Z,74.84
2023-06-30T09:23:47.624Z,74.57
2023-06-30T09:24:52.632Z,75.27
2023-06-30T09:25:47.899Z,75.77
2023-06-30T09:26:47.580Z,75.47
2023-06-30T09:27:47.587Z,75.27
2023-06-30T09:28:47.572Z,75.57
2023-06-30T09:29:47.561Z,75.47
2023-06-30T09:30:47.787Z,75.67
2023-06-30T09:31:47.556Z,75.60
2023-06-30T09:32:47.562Z,75.41
2023-06-30T09:33:47.514Z,75.77
2023-06-30T09:34:47.487Z,75.51
2023-06-30T09:35:52.501Z,75.71
2023-06-30T09:36:47.473Z,75.51
2023-06-30T09:37:47.475Z,75.51
2023-06-30T09:38:47.446Z,75.71
2023-06-30T09:39:47.459Z,74.80
2023-06-30T09:40:47.426Z,74.90
2023-06-30T09:41:47.431Z,74.80
2023-06-30T09:42:48.330Z,75.10
2023-06-30T09:43:47.394Z,74.60
2023-06-30T09:44:47.374Z,74.40
2023-06-30T09:45:47.974Z,74.30
2023-06-30T09:46:52.462Z,74.37
2023-06-30T09:47:47.381Z,73.97
2023-06-30T09:48:47.334Z,73.57
2023-06-30T09:49:47.424Z,73.83
2023-06-30T09:50:47.311Z,73.19
2023-06-30T09:51:47.309Z,72.43
2023-06-30T09:52:47.292Z,72.60
2023-06-30T09:53:47.291Z,72.93
2023-06-30T09:54:47.263Z,72.53
2023-06-30T09:55:47.437Z,73.03
2023-06-30T09:56:47.257Z,73.00
2023-06-30T09:57:52.255Z,73.30
2023-06-30T09:58:48.108Z,72.39
2023-06-30T09:59:47.221Z,73.00
2023-06-30T10:00:47.200Z,71.19
2023-06-30T10:01:47.228Z,72.30
2023-06-30T10:02:47.290Z,71.30
2023-06-30T10:03:47.194Z,71.50
2023-06-30T10:04:47.158Z,71.36
2023-06-30T10:05:47.502Z,71.30
2023-06-30T10:06:47.137Z,71.46
2023-06-30T10:07:47.123Z,71.76
2023-06-30T10:08:52.129Z,71.06
2023-06-30T10:09:47.107Z,70.96
2023-06-30T10:10:47.132Z,70.86
2023-06-30T10:11:47.097Z,71.86
2023-06-30T10:12:47.077Z,71.36
2023-06-30T10:13:47.052Z,71.46
2023-06-30T10:14:47.041Z,71.16
2023-06-30T10:15:47.461Z,70.96
2023-06-30T10:16:47.021Z,71.96
2023-06-30T10:17:47.134Z,71.96
2023-06-30T10:18:47.077Z,71.96
2023-06-30T10:19:52.027Z,71.06
2023-06-30T10:21:47.975Z,70.96
2023-06-30T10:22:46.961Z,71.06
2023-06-30T10:23:46.950Z,71.16
2023-06-30T10:24:46.949Z,71.12
2023-06-30T10:25:47.297Z,71.33
2023-06-30T10:26:46.913Z,70.92
2023-06-30T10:27:46.895Z,70.73
2023-06-30T10:28:46.930Z,70.73
2023-06-30T10:29:46.889Z,70.92
2023-06-30T10:30:51.932Z,71.16
2023-06-30T10:31:46.888Z,70.96
2023-06-30T10:32:46.950Z,71.06
2023-06-30T10:33:46.867Z,71.30
2023-06-30T10:34:46.857Z,71.46
2023-06-30T10:35:47.134Z,71.30
2023-06-30T10:36:46.818Z,71.06
2023-06-30T10:37:46.791Z,71.26
2023-06-30T10:38:46.812Z,70.96
2023-06-30T10:39:46.781Z,71.46
2023-06-30T10:40:46.772Z,70.96
2023-06-30T10:41:51.777Z,71.12
2023-06-30T10:42:46.794Z,70.62
2023-06-30T10:43:46.760Z,70.83
2023-06-30T10:44:46.722Z,70.73
2023-06-30T10:45:46.819Z,70.73
2023-06-30T10:46:46.718Z,70.96
2023-06-30T10:47:46.703Z,70.96
2023-06-30T10:48:46.679Z,70.86
2023-06-30T10:49:46.696Z,71.30
2023-06-30T10:50:46.678Z,71.26
2023-06-30T10:51:46.636Z,70.96
2023-06-30T10:52:51.671Z,71.26
2023-06-30T10:53:46.630Z,71.39
2023-06-30T10:54:46.639Z,70.79
2023-06-30T10:55:47.056Z,71.69
2023-06-30T10:56:46.640Z,71.00
2023-06-30T10:57:46.577Z,70.19
2023-06-30T10:58:46.583Z,69.66
2023-06-30T10:59:46.557Z,69.36
2023-06-30T11:00:46.548Z,69.16
2023-06-30T11:01:46.540Z,69.36
2023-06-30T11:02:46.670Z,69.56
2023-06-30T11:03:51.713Z,69.26
2023-06-30T11:04:46.633Z,68.43
2023-06-30T11:05:46.659Z,67.49
2023-06-30T11:06:46.516Z,67.09
2023-06-30T11:07:46.497Z,66.46
2023-06-30T11:08:46.451Z,66.53
2023-06-30T11:09:46.531Z,66.66
2023-06-30T11:10:46.432Z,65.86
2023-06-30T11:11:46.424Z,65.56
2023-06-30T11:12:46.420Z,65.56
2023-06-30T11:13:46.439Z,65.53
2023-06-30T11:14:51.402Z,65.70
2023-06-30T11:15:47.294Z,64.57
2023-06-30T11:16:46.386Z,63.67
2023-06-30T11:17:46.421Z,63.54
2023-06-30T11:18:46.472Z,63.84
2023-06-30T11:19:46.360Z,63.84
2023-06-30T11:20:46.324Z,63.71
2023-06-30T11:21:46.323Z,63.64
2023-06-30T11:22:46.431Z,63.94
2023-06-30T11:23:46.284Z,63.64
2023-06-30T11:24:46.268Z,63.87
2023-06-30T11:25:51.289Z,63.77
2023-06-30T11:26:46.258Z,64.00
2023-06-30T11:27:46.267Z,64.20
2023-06-30T11:28:46.243Z,64.20
2023-06-30T11:29:46.322Z,64.33
2023-06-30T11:30:46.253Z,65.13
2023-06-30T11:31:46.201Z,65.13
2023-06-30T11:32:46.215Z,65.33
2023-06-30T11:33:46.170Z,65.43
2023-06-30T11:34:46.166Z,65.43
2023-06-30T11:35:46.393Z,64.83
2023-06-30T11:36:51.206Z,64.93
2023-06-30T11:37:46.121Z,64.93
2023-06-30T11:38:46.151Z,65.13
2023-06-30T11:39:46.101Z,65.23
2023-06-30T11:40:46.108Z,65.33
2023-06-30T11:41:46.090Z,65.43
2023-06-30T11:42:46.067Z,65.13
2023-06-30T11:43:46.056Z,65.36
2023-06-30T11:44:46.127Z,65.23
2023-06-30T11:45:46.244Z,65.06
2023-06-30T11:46:46.068Z,66.36
2023-06-30T11:47:51.091Z,65.26
2023-06-30T11:48:46.041Z,65.36
2023-06-30T11:49:46.006Z,65.36
2023-06-30T11:50:46.177Z,65.46
2023-06-30T11:51:45.991Z,66.16
2023-06-30T11:52:45.961Z,65.49
2023-06-30T11:53:45.955Z,65.59
2023-06-30T11:54:45.973Z,65.36
2023-06-30T11:55:46.189Z,65.69
2023-06-30T11:56:45.969Z,66.29
2023-06-30T11:57:45.938Z,65.79
2023-06-30T11:58:50.945Z,65.69
2023-06-30T11:59:45.911Z,65.63
2023-06-30T12:00:46.187Z,63.87
2023-06-30T12:01:45.860Z,62.97
2023-06-30T12:02:47.305Z,62.84
2023-06-30T12:03:45.929Z,62.87
2023-06-30T12:04:45.894Z,63.27
2023-06-30T12:05:46.065Z,62.74
2023-06-30T12:06:45.807Z,61.71
2023-06-30T12:07:45.822Z,62.21
2023-06-30T12:08:45.797Z,62.12
2023-06-30T12:09:50.811Z,61.39
2023-06-30T12:10:45.971Z,61.09
2023-06-30T12:11:45.760Z,59.96
2023-06-30T12:12:45.753Z,59.41
2023-06-30T12:13:45.740Z,58.54
2023-06-30T12:14:45.716Z,59.61
2023-06-30T12:15:45.998Z,58.09
2023-06-30T12:16:46.538Z,58.39
2023-06-30T12:17:45.837Z,58.09
2023-06-30T12:18:45.689Z,57.99
2023-06-30T12:19:45.678Z,59.28
2023-06-30T12:20:50.676Z,57.96
2023-06-30T12:21:45.664Z,57.64
2023-06-30T12:22:45.669Z,57.24
2023-06-30T12:23:45.688Z,56.64
2023-06-30T12:24:45.608Z,56.21
2023-06-30T12:25:45.911Z,56.44
2023-06-30T12:26:45.587Z,55.69
2023-06-30T12:27:45.597Z,55.57
2023-06-30T12:28:45.566Z,55.04
2023-06-30T12:29:45.574Z,53.73
2023-06-30T12:30:45.957Z,54.30
2023-06-30T12:31:45.563Z,53.53
2023-06-30T12:32:45.578Z,53.33
2023-06-30T12:33:50.528Z,54.15
2023-06-30T12:34:45.602Z,54.25
2023-06-30T12:35:45.775Z,55.36
2023-06-30T12:36:45.486Z,54.50
2023-06-30T12:37:45.482Z,55.62
2023-06-30T12:38:45.465Z,56.21
2023-06-30T12:39:45.465Z,56.34
2023-06-30T12:40:45.800Z,56.24
2023-06-30T12:41:45.467Z,56.67
2023-06-30T12:42:45.412Z,57.69
2023-06-30T12:43:45.459Z,59.14
2023-06-30T12:44:45.389Z,59.23
2023-06-30T12:45:45.378Z,58.84
2023-06-30T12:46:50.403Z,58.31
2023-06-30T12:47:45.433Z,58.41
2023-06-30T12:48:45.394Z,58.61
2023-06-30T12:49:45.337Z,58.01
2023-06-30T12:50:45.578Z,57.52
2023-06-30T12:51:45.323Z,58.61
2023-06-30T12:52:45.303Z,57.94
2023-06-30T12:53:45.310Z,58.76
2023-06-30T12:54:45.302Z,58.67
2023-06-30T12:55:45.276Z,59.06
2023-06-30T12:56:45.270Z,58.70
2023-06-30T12:57:45.274Z,59.30
2023-06-30T12:58:45.242Z,59.79
2023-06-30T12:59:50.263Z,60.09
2023-06-30T13:00:45.723Z,59.59
2023-06-30T13:01:45.298Z,60.16
2023-06-30T13:02:45.255Z,59.99
2023-06-30T13:03:45.259Z,59.96
2023-06-30T13:04:45.185Z,59.27
2023-06-30T13:05:45.166Z,58.37
2023-06-30T13:06:45.165Z,59.66
2023-06-30T13:07:45.169Z,59.66
2023-06-30T13:08:45.126Z,59.44
2023-06-30T13:09:45.129Z,58.87
2023-06-30T13:10:45.517Z,58.54
2023-06-30T13:11:45.102Z,59.04
2023-06-30T13:12:50.152Z,58.24
2023-06-30T13:13:45.067Z,58.27
2023-06-30T13:14:45.069Z,58.37
2023-06-30T13:15:45.474Z,58.24
2023-06-30T13:16:45.076Z,58.24
2023-06-30T13:17:45.070Z,58.44
2023-06-30T13:18:45.027Z,57.84
2023-06-30T13:19:45.012Z,58.34
2023-06-30T13:20:45.015Z,58.04
2023-06-30T13:21:44.981Z,58.84
2023-06-30T13:22:56.922Z,58.27
2023-06-30T13:23:50.019Z,58.27
2023-06-30T13:24:45.075Z,58.27
2023-06-30T13:25:45.408Z,58.97
2023-06-30T13:26:44.927Z,58.87
2023-06-30T13:27:44.913Z,58.37
2023-06-30T13:28:44.928Z,58.07
2023-06-30T13:29:44.903Z,59.27
2023-06-30T13:30:45.158Z,59.27
2023-06-30T13:31:44.921Z,59.06
2023-06-30T13:32:44.922Z,58.70
2023-06-30T13:33:44.858Z,59.39
2023-06-30T13:34:49.883Z,58.76
2023-06-30T13:35:45.074Z,59.56
2023-06-30T13:36:44.860Z,59.79
2023-06-30T13:37:44.817Z,58.37
2023-06-30T13:38:44.827Z,58.37
2023-06-30T13:39:44.825Z,58.57
2023-06-30T13:40:45.033Z,58.20
2023-06-30T13:41:44.761Z,58.50
2023-06-30T13:42:44.807Z,58.10
2023-06-30T13:43:44.754Z,58.70
2023-06-30T13:44:44.747Z,58.70
2023-06-30T13:45:49.795Z,58.37
2023-06-30T13:46:44.727Z,58.17
2023-06-30T13:47:44.740Z,57.17
2023-06-30T13:48:44.705Z,56.81
2023-06-30T13:49:44.724Z,56.87
2023-06-30T13:50:44.706Z,56.81
2023-06-30T13:51:44.658Z,56.90
2023-06-30T13:52:44.647Z,56.30
2023-06-30T13:53:44.653Z,56.70
2023-06-30T13:54:44.622Z,57.50
2023-06-30T13:55:44.993Z,56.60
2023-06-30T13:56:49.627Z,56.81
2023-06-30T13:57:44.597Z,56.81
2023-06-30T13:58:44.571Z,56.38
2023-06-30T13:59:44.565Z,56.77
2023-06-30T14:00:44.794Z,55.95
2023-06-30T14:01:44.581Z,56.65
2023-06-30T14:02:44.562Z,56.45
2023-06-30T14:03:44.546Z,55.85
2023-06-30T14:04:44.655Z,55.82
2023-06-30T14:05:44.804Z,55.43
2023-06-30T14:06:44.491Z,55.13
2023-06-30T14:07:49.536Z,54.33
2023-06-30T14:08:44.461Z,54.33
2023-06-30T14:09:44.454Z,54.63
2023-06-30T14:10:44.695Z,54.93
2023-06-30T14:11:44.442Z,55.43
2023-06-30T14:12:44.418Z,55.23
2023-06-30T14:13:44.435Z,55.43
2023-06-30T14:14:45.227Z,55.73
2023-06-30T14:15:44.688Z,54.93
2023-06-30T14:16:44.448Z,55.43
2023-06-30T14:17:44.467Z,55.13
2023-06-30T14:18:49.388Z,54.33
2023-06-30T14:19:44.350Z,53.74
2023-06-30T14:20:44.604Z,54.71
2023-06-30T14:21:44.354Z,53.91
2023-06-30T14:22:44.309Z,53.69
2023-06-30T14:23:44.300Z,53.98
2023-06-30T14:24:44.318Z,53.71
2023-06-30T14:25:44.764Z,53.61
2023-06-30T14:26:44.295Z,53.71
2023-06-30T14:27:44.267Z,53.91
2023-06-30T14:28:44.250Z,54.31
2023-06-30T14:29:49.321Z,53.71
2023-06-30T14:30:44.306Z,53.91
2023-06-30T14:31:44.212Z,53.83
2023-06-30T14:32:44.332Z,53.94
2023-06-30T14:33:44.188Z,53.83
2023-06-30T14:34:44.193Z,53.94
2023-06-30T14:35:44.437Z,53.74
2023-06-30T14:36:44.171Z,52.64
2023-06-30T14:37:44.152Z,52.24
2023-06-30T14:38:44.150Z,52.34
2023-06-30T14:39:44.134Z,52.74
2023-06-30T14:40:49.131Z,52.04
2023-06-30T14:41:53.642Z,52.44
2023-06-30T14:42:44.092Z,52.14
2023-06-30T14:43:44.088Z,52.32
2023-06-30T14:44:44.104Z,51.92
2023-06-30T14:45:44.425Z,52.02
2023-06-30T14:46:44.077Z,50.75
2023-06-30T14:47:44.085Z,51.15
2023-06-30T14:48:44.058Z,50.63
2023-06-30T14:49:44.038Z,50.52
2023-06-30T14:50:44.013Z,50.75
2023-06-30T14:51:49.024Z,50.52
2023-06-30T14:52:43.981Z,50.45
2023-06-30T14:53:43.981Z,50.35
2023-06-30T14:54:43.961Z,51.54
2023-06-30T14:55:44.162Z,50.85
2023-06-30T14:56:43.937Z,51.45
2023-06-30T14:57:43.952Z,50.75
2023-06-30T14:58:43.928Z,50.75
2023-06-30T14:59:43.912Z,51.12
2023-06-30T15:00:43.891Z,50.85
2023-06-30T15:01:43.928Z,51.42
2023-06-30T15:02:49.100Z,51.32
2023-06-30T15:03:43.958Z,50.52
2023-06-30T15:04:43.926Z,50.73
2023-06-30T15:05:44.033Z,50.05
2023-06-30T15:06:43.827Z,50.45
2023-06-30T15:07:46.147Z,50.43
2023-06-30T15:08:43.805Z,50.15
2023-06-30T15:09:43.793Z,50.82
2023-06-30T15:10:43.789Z,50.45
2023-06-30T15:11:43.814Z,50.73
2023-06-30T15:12:43.782Z,50.63
2023-06-30T15:13:48.788Z,50.95
2023-06-30T15:14:43.745Z,51.05
2023-06-30T15:15:43.974Z,50.65
2023-06-30T15:16:43.750Z,50.43
2023-06-30T15:17:43.788Z,50.03
2023-06-30T15:18:43.691Z,50.03
2023-06-30T15:19:45.726Z,50.43
2023-06-30T15:20:43.709Z,50.23
2023-06-30T15:21:43.691Z,50.33
2023-06-30T15:22:43.655Z,49.73
2023-06-30T15:23:43.669Z,50.03
2023-06-30T15:24:48.662Z,50.73
2023-06-30T15:25:43.868Z,50.03
2023-06-30T15:26:43.615Z,50.13
2023-06-30T15:27:43.631Z,50.52
2023-06-30T15:28:43.588Z,50.63
2023-06-30T15:29:43.614Z,50.70
2023-06-30T15:30:43.819Z,51.03
2023-06-30T15:31:43.581Z,50.23
2023-06-30T15:32:43.603Z,49.61
2023-06-30T15:33:43.652Z,50.33
2023-06-30T15:34:43.518Z,50.52
2023-06-30T15:35:48.704Z,50.50
2023-06-30T15:36:43.495Z,49.73
2023-06-30T15:37:43.494Z,49.61
2023-06-30T15:38:43.474Z,49.63
2023-06-30T15:39:43.470Z,49.83
2023-06-30T15:40:43.463Z,50.10
2023-06-30T15:41:43.456Z,50.20
2023-06-30T15:42:43.429Z,50.20
2023-06-30T15:43:43.418Z,50.01
2023-06-30T15:44:43.405Z,50.70
2023-06-30T15:45:43.417Z,49.91
2023-06-30T15:46:48.533Z,49.61
2023-06-30T15:47:43.405Z,49.71
2023-06-30T15:48:43.381Z,50.01
2023-06-30T15:49:43.373Z,50.10
2023-06-30T15:50:43.370Z,49.80
2023-06-30T15:51:43.353Z,50.01
2023-06-30T15:52:43.361Z,49.80
2023-06-30T15:53:43.331Z,50.01
2023-06-30T15:54:43.321Z,49.91
2023-06-30T15:55:43.532Z,49.11
2023-06-30T15:56:43.273Z,49.51
2023-06-30T15:57:48.291Z,49.41
2023-06-30T15:58:43.282Z,49.38
2023-06-30T15:59:43.280Z,49.38
2023-06-30T16:00:43.273Z,49.68
2023-06-30T16:01:43.238Z,48.59
2023-06-30T16:02:43.390Z,49.19
2023-06-30T16:03:43.409Z,49.58
2023-06-30T16:04:43.272Z,49.38
2023-06-30T16:05:43.268Z,49.19
2023-06-30T16:06:43.187Z,48.69
2023-06-30T16:07:43.179Z,48.49
2023-06-30T16:08:48.188Z,49.19
2023-06-30T16:09:43.140Z,48.79
2023-06-30T16:10:43.123Z,48.59
2023-06-30T16:11:43.135Z,48.41
2023-06-30T16:12:43.134Z,49.41
2023-06-30T16:13:43.127Z,49.71
2023-06-30T16:14:43.082Z,49.21
2023-06-30T16:15:43.087Z,49.31
2023-06-30T16:16:43.081Z,49.51
2023-06-30T16:17:43.080Z,49.63
2023-06-30T16:18:43.131Z,50.01
2023-06-30T16:19:48.049Z,49.83
2023-06-30T16:20:43.015Z,49.83
2023-06-30T16:21:43.014Z,49.53
2023-06-30T16:22:43.000Z,49.83
2023-06-30T16:23:43.005Z,49.73
2023-06-30T16:24:45.647Z,50.03
2023-06-30T16:25:42.961Z,49.63
2023-06-30T16:26:42.947Z,49.93
2023-06-30T16:27:42.951Z,50.23
2023-06-30T16:28:42.955Z,49.85
2023-06-30T16:29:42.948Z,49.73
2023-06-30T16:30:47.942Z,49.83
2023-06-30T16:31:42.915Z,49.66
2023-06-30T16:32:42.919Z,49.76
2023-06-30T16:33:42.936Z,50.55
2023-06-30T16:34:43.073Z,50.35
2023-06-30T16:35:42.878Z,50.45
2023-06-30T16:36:42.916Z,50.65
2023-06-30T16:37:42.828Z,50.95
2023-06-30T16:38:42.819Z,51.65
2023-06-30T16:39:42.836Z,50.25
2023-06-30T16:40:42.798Z,50.45
2023-06-30T16:41:47.820Z,50.45
2023-06-30T16:42:42.797Z,50.55
2023-06-30T16:43:42.804Z,50.35
2023-06-30T16:44:42.758Z,50.25
2023-06-30T16:45:42.798Z,49.76
2023-06-30T16:46:42.795Z,49.66
2023-06-30T16:47:44.727Z,49.66
2023-06-30T16:48:42.715Z,49.66
2023-06-30T16:49:42.719Z,50.57
2023-06-30T16:50:42.696Z,50.98
2023-06-30T16:51:42.701Z,50.57
2023-06-30T16:52:47.685Z,50.15
2023-06-30T16:53:42.653Z,49.88
2023-06-30T16:54:42.642Z,50.15
2023-06-30T16:55:42.784Z,50.27
2023-06-30T16:56:42.771Z,50.68
2023-06-30T16:57:42.668Z,49.95
2023-06-30T16:58:42.632Z,49.88
2023-06-30T16:59:42.594Z,50.18
2023-06-30T17:00:42.701Z,50.48
2023-06-30T17:01:42.632Z,50.48
2023-06-30T17:02:42.704Z,49.88
2023-06-30T17:03:47.635Z,50.48
2023-06-30T17:04:42.655Z,50.27
2023-06-30T17:05:42.679Z,51.17
2023-06-30T17:06:42.584Z,51.37
2023-06-30T17:07:42.591Z,50.48
2023-06-30T17:08:42.588Z,51.17
2023-06-30T17:09:42.518Z,51.17
2023-06-30T17:10:44.463Z,51.17
2023-06-30T17:11:42.489Z,50.87
2023-06-30T17:12:42.469Z,51.37
2023-06-30T17:13:42.476Z,50.87
2023-06-30T17:14:47.495Z,50.90
2023-06-30T17:15:42.417Z,51.10
2023-06-30T17:16:42.469Z,51.17
2023-06-30T17:17:42.481Z,50.08
2023-06-30T17:18:42.407Z,51.20
2023-06-30T17:19:42.400Z,51.20
2023-06-30T17:20:42.368Z,51.40
2023-06-30T17:21:42.383Z,51.20
2023-06-30T17:22:42.385Z,51.10
2023-06-30T17:23:42.336Z,51.40
2023-06-30T17:24:42.326Z,51.50
2023-06-30T17:25:47.747Z,50.50
2023-06-30T17:26:42.305Z,51.10
2023-06-30T17:27:42.336Z,51.00
2023-06-30T17:28:42.280Z,51.20
2023-06-30T17:29:42.266Z,51.40
2023-06-30T17:30:42.310Z,50.60
2023-06-30T17:31:42.236Z,50.50
2023-06-30T17:32:42.287Z,50.60
2023-06-30T17:33:42.229Z,51.50
2023-06-30T17:34:42.233Z,51.40
2023-06-30T17:35:42.207Z,51.52
2023-06-30T17:36:47.196Z,50.90
2023-06-30T17:37:42.175Z,51.29
2023-06-30T17:38:42.175Z,50.82
2023-06-30T17:39:42.164Z,51.29
2023-06-30T17:40:42.145Z,51.20
2023-06-30T17:41:42.144Z,50.70
2023-06-30T17:42:42.177Z,50.20
2023-06-30T17:43:42.134Z,50.70
2023-06-30T17:44:42.124Z,49.90
2023-06-30T17:45:42.104Z,49.80
2023-06-30T17:46:42.093Z,50.20
2023-06-30T17:47:47.110Z,50.80
2023-06-30T17:48:42.084Z,49.80
2023-06-30T17:49:42.048Z,49.51
2023-06-30T17:50:42.024Z,49.90
2023-06-30T17:51:42.105Z,50.20
2023-06-30T17:52:42.006Z,49.90
2023-06-30T17:53:42.056Z,49.80
2023-06-30T17:54:42.210Z,49.80